sensor_id;sensor_type;location;lat;lon;timestamp;temperature;humidity
3005;DHT22;1512;51.486;6.610;2023-04-03T00:01:32;3.80;6.20
3005;DHT22;1512;51.486;6.610;2023-04-03T00:05:40;3.70;28.90
3005;DHT22;1512;51.486;6.610;2023-04-03T00:09:49;3.70;90.70
3005;DHT22;1512;51.486;6.610;2023-04-03T00:13:58;3.60;81.00
3005;DHT22;1512;51.486;6.610;2023-04-03T00:18:07;3.60;99.90
3005;DHT22;1512;51.486;6.610;2023-04-03T00:22:15;3.70;99.90
3005;DHT22;1512;51.486;6.610;2023-04-03T00:26:24;3.70;99.90
3005;DHT22;1512;51.486;6.610;2023-04-03T00:30:33;3.50;26.90
3005;DHT22;1512;51.486;6.610;2023-04-03T00:34:42;3.20;99.90
3005;DHT22;1512;51.486;6.610;2023-04-03T00:38:51;3.20;99.90
3005;DHT22;1512;51.486;6.610;2023-04-03T00:43:00;3.20;99.90
3005;DHT22;1512;51.486;6.610;2023-04-03T00:47:13;3.30;99.90
3005;DHT22;1512;51.486;6.610;2023-04-03T00:55:56;3.30;99.90
3005;DHT22;1512;51.486;6.610;2023-04-03T01:00:10;3.10;99.90
3005;DHT22;1512;51.486;6.610;2023-04-03T01:04:44;3.00;99.90
3005;DHT22;1512;51.486;6.610;2023-04-03T01:08:50;3.00;99.90
3005;DHT22;1512;51.486;6.610;2023-04-03T01:13:00;3.10;99.90
3005;DHT22;1512;51.486;6.610;2023-04-03T01:17:33;3.10;99.90
3005;DHT22;1512;51.486;6.610;2023-04-03T01:26:16;3.30;1.00
3005;DHT22;1512;51.486;6.610;2023-04-03T01:30:28;3.30;1.00
3005;DHT22;1512;51.486;6.610;2023-04-03T01:34:36;3.30;1.00
3005;DHT22;1512;51.486;6.610;2023-04-03T01:38:45;3.30;1.00
3005;DHT22;1512;51.486;6.610;2023-04-03T01:42:54;3.30;1.00
3005;DHT22;1512;51.486;6.610;2023-04-03T01:47:05;3.40;1.00
3005;DHT22;1512;51.486;6.610;2023-04-03T01:51:15;3.40;1.00
3005;DHT22;1512;51.486;6.610;2023-04-03T01:55:24;3.50;1.00
3005;DHT22;1512;51.486;6.610;2023-04-03T02:04:18;3.50;1.00
3005;DHT22;1512;51.486;6.610;2023-04-03T02:08:27;3.40;99.90
3005;DHT22;1512;51.486;6.610;2023-04-03T02:12:35;3.40;99.90
3005;DHT22;1512;51.486;6.610;2023-04-03T02:16:44;3.40;99.90
3005;DHT22;1512;51.486;6.610;2023-04-03T02:20:53;3.40;99.90
3005;DHT22;1512;51.486;6.610;2023-04-03T02:25:02;3.40;99.90
3005;DHT22;1512;51.486;6.610;2023-04-03T02:29:10;3.40;99.90
3005;DHT22;1512;51.486;6.610;2023-04-03T02:33:19;3.40;99.90
3005;DHT22;1512;51.486;6.610;2023-04-03T02:37:28;3.40;99.90
3005;DHT22;1512;51.486;6.610;2023-04-03T02:41:36;3.40;99.90
3005;DHT22;1512;51.486;6.610;2023-04-03T02:45:45;3.40;99.90
3005;DHT22;1512;51.486;6.610;2023-04-03T02:49:54;3.40;99.90
3005;DHT22;1512;51.486;6.610;2023-04-03T02:54:03;3.30;69.80
3005;DHT22;1512;51.486;6.610;2023-04-03T02:58:12;3.40;99.90
3005;DHT22;1512;51.486;6.610;2023-04-03T03:02:24;3.30;1.00
3005;DHT22;1512;51.486;6.610;2023-04-03T03:06:32;3.30;4.90
3005;DHT22;1512;51.486;6.610;2023-04-03T03:10:41;3.30;21.20
3005;DHT22;1512;51.486;6.610;2023-04-03T03:14:50;3.30;14.70
3005;DHT22;1512;51.486;6.610;2023-04-03T03:19:18;3.30;19.80
3005;DHT22;1512;51.486;6.610;2023-04-03T03:23:46;3.30;31.60
3005;DHT22;1512;51.486;6.610;2023-04-03T03:27:55;3.30;29.70
3005;DHT22;1512;51.486;6.610;2023-04-03T03:32:03;3.20;20.30
3005;DHT22;1512;51.486;6.610;2023-04-03T03:36:12;3.20;46.70
3005;DHT22;1512;51.486;6.610;2023-04-03T03:40:21;3.20;99.90
3005;DHT22;1512;51.486;6.610;2023-04-03T03:44:30;3.20;99.90
3005;DHT22;1512;51.486;6.610;2023-04-03T03:48:38;3.20;99.90
3005;DHT22;1512;51.486;6.610;2023-04-03T03:52:47;3.20;55.40
3005;DHT22;1512;51.486;6.610;2023-04-03T03:56:56;3.20;6.40
3005;DHT22;1512;51.486;6.610;2023-04-03T04:01:06;3.20;28.00
3005;DHT22;1512;51.486;6.610;2023-04-03T04:05:15;3.10;1.00
3005;DHT22;1512;51.486;6.610;2023-04-03T04:09:24;3.20;1.00
3005;DHT22;1512;51.486;6.610;2023-04-03T04:13:33;3.10;1.00
3005;DHT22;1512;51.486;6.610;2023-04-03T04:17:42;3.10;1.00
3005;DHT22;1512;51.486;6.610;2023-04-03T04:21:51;3.10;1.00
3005;DHT22;1512;51.486;6.610;2023-04-03T04:25:59;3.20;39.20
3005;DHT22;1512;51.486;6.610;2023-04-03T04:30:08;3.20;1.00
3005;DHT22;1512;51.486;6.610;2023-04-03T04:34:18;3.20;1.00
3005;DHT22;1512;51.486;6.610;2023-04-03T04:38:46;3.10;1.00
3005;DHT22;1512;51.486;6.610;2023-04-03T04:42:54;3.10;1.00
3005;DHT22;1512;51.486;6.610;2023-04-03T04:47:03;3.00;1.00
3005;DHT22;1512;51.486;6.610;2023-04-03T04:51:12;2.90;1.00
3005;DHT22;1512;51.486;6.610;2023-04-03T04:55:21;3.00;1.00
3005;DHT22;1512;51.486;6.610;2023-04-03T04:59:29;3.00;1.00
3005;DHT22;1512;51.486;6.610;2023-04-03T05:03:38;3.00;1.00
3005;DHT22;1512;51.486;6.610;2023-04-03T05:07:47;2.90;1.00
3005;DHT22;1512;51.486;6.610;2023-04-03T05:11:55;2.90;1.00
3005;DHT22;1512;51.486;6.610;2023-04-03T05:16:04;2.90;1.00
3005;DHT22;1512;51.486;6.610;2023-04-03T05:20:13;2.90;1.00
3005;DHT22;1512;51.486;6.610;2023-04-03T05:24:22;2.90;1.00
3005;DHT22;1512;51.486;6.610;2023-04-03T05:28:31;2.90;1.00
3005;DHT22;1512;51.486;6.610;2023-04-03T05:32:39;2.90;1.00
3005;DHT22;1512;51.486;6.610;2023-04-03T05:36:48;2.90;1.00
3005;DHT22;1512;51.486;6.610;2023-04-03T05:40:57;2.90;1.00
3005;DHT22;1512;51.486;6.610;2023-04-03T05:45:07;2.80;1.00
3005;DHT22;1512;51.486;6.610;2023-04-03T05:49:15;2.80;1.00
3005;DHT22;1512;51.486;6.610;2023-04-03T05:53:29;2.80;1.00
3005;DHT22;1512;51.486;6.610;2023-04-03T05:57:58;2.90;1.00
3005;DHT22;1512;51.486;6.610;2023-04-03T06:02:06;2.80;1.00
3005;DHT22;1512;51.486;6.610;2023-04-03T06:06:15;2.80;1.00
3005;DHT22;1512;51.486;6.610;2023-04-03T06:10:24;2.80;1.00
3005;DHT22;1512;51.486;6.610;2023-04-03T06:14:32;2.70;1.00
3005;DHT22;1512;51.486;6.610;2023-04-03T06:18:41;2.80;1.00
3005;DHT22;1512;51.486;6.610;2023-04-03T06:22:50;2.80;1.00
3005;DHT22;1512;51.486;6.610;2023-04-03T06:31:50;2.80;1.00
3005;DHT22;1512;51.486;6.610;2023-04-03T06:35:58;2.90;1.00
3005;DHT22;1512;51.486;6.610;2023-04-03T06:40:14;2.90;1.00
3005;DHT22;1512;51.486;6.610;2023-04-03T06:44:19;2.90;1.00
3005;DHT22;1512;51.486;6.610;2023-04-03T06:48:28;2.90;1.00
3005;DHT22;1512;51.486;6.610;2023-04-03T06:52:38;2.90;1.00
3005;DHT22;1512;51.486;6.610;2023-04-03T06:56:47;3.00;1.00
3005;DHT22;1512;51.486;6.610;2023-04-03T07:00:56;3.00;1.00
3005;DHT22;1512;51.486;6.610;2023-04-03T07:05:05;3.10;1.00
3005;DHT22;1512;51.486;6.610;2023-04-03T07:09:15;3.20;1.00
3005;DHT22;1512;51.486;6.610;2023-04-03T07:13:23;3.20;1.00
3005;DHT22;1512;51.486;6.610;2023-04-03T07:17:32;3.30;1.00
3005;DHT22;1512;51.486;6.610;2023-04-03T07:21:41;3.40;1.00
3005;DHT22;1512;51.486;6.610;2023-04-03T07:25:51;3.40;1.00
3005;DHT22;1512;51.486;6.610;2023-04-03T07:30:00;3.50;1.00
3005;DHT22;1512;51.486;6.610;2023-04-03T07:34:08;3.50;1.00
3005;DHT22;1512;51.486;6.610;2023-04-03T07:38:18;3.60;1.00
3005;DHT22;1512;51.486;6.610;2023-04-03T07:42:26;3.70;1.00
3005;DHT22;1512;51.486;6.610;2023-04-03T07:46:36;3.80;1.00
3005;DHT22;1512;51.486;6.610;2023-04-03T07:50:44;3.80;1.00
3005;DHT22;1512;51.486;6.610;2023-04-03T07:54:53;3.90;1.00
3005;DHT22;1512;51.486;6.610;2023-04-03T07:59:02;4.00;1.00
3005;DHT22;1512;51.486;6.610;2023-04-03T08:03:12;4.00;1.00
3005;DHT22;1512;51.486;6.610;2023-04-03T08:07:21;4.10;1.00
3005;DHT22;1512;51.486;6.610;2023-04-03T08:11:30;4.20;1.00
3005;DHT22;1512;51.486;6.610;2023-04-03T08:15:39;4.30;1.00
3005;DHT22;1512;51.486;6.610;2023-04-03T08:19:48;4.40;1.00
3005;DHT22;1512;51.486;6.610;2023-04-03T08:23:57;4.50;1.00
3005;DHT22;1512;51.486;6.610;2023-04-03T08:28:06;4.60;1.00
3005;DHT22;1512;51.486;6.610;2023-04-03T08:32:15;4.80;1.00
3005;DHT22;1512;51.486;6.610;2023-04-03T08:36:26;4.90;99.90
3005;DHT22;1512;51.486;6.610;2023-04-03T08:40:34;5.00;1.00
3005;DHT22;1512;51.486;6.610;2023-04-03T08:49:40;5.30;99.90
3005;DHT22;1512;51.486;6.610;2023-04-03T08:53:58;5.50;99.90
3005;DHT22;1512;51.486;6.610;2023-04-03T08:58:15;5.70;99.90
3005;DHT22;1512;51.486;6.610;2023-04-03T09:02:46;5.90;99.90
3005;DHT22;1512;51.486;6.610;2023-04-03T09:07:11;6.00;99.90
3005;DHT22;1512;51.486;6.610;2023-04-03T09:15:55;6.30;99.90
3005;DHT22;1512;51.486;6.610;2023-04-03T09:20:31;6.40;99.90
3005;DHT22;1512;51.486;6.610;2023-04-03T09:24:37;6.60;99.90
3005;DHT22;1512;51.486;6.610;2023-04-03T09:28:46;6.70;99.90
3005;DHT22;1512;51.486;6.610;2023-04-03T09:32:57;6.90;99.90
3005;DHT22;1512;51.486;6.610;2023-04-03T09:37:06;7.00;99.90
3005;DHT22;1512;51.486;6.610;2023-04-03T09:41:17;7.20;99.90
3005;DHT22;1512;51.486;6.610;2023-04-03T09:45:32;7.50;99.90
3005;DHT22;1512;51.486;6.610;2023-04-03T09:49:41;7.60;99.90
3005;DHT22;1512;51.486;6.610;2023-04-03T09:58:37;7.80;99.90
3005;DHT22;1512;51.486;6.610;2023-04-03T10:02:54;8.00;99.90
3005;DHT22;1512;51.486;6.610;2023-04-03T10:11:59;8.30;99.90
3005;DHT22;1512;51.486;6.610;2023-04-03T10:16:14;8.50;99.90
3005;DHT22;1512;51.486;6.610;2023-04-03T10:20:33;8.70;99.90
3005;DHT22;1512;51.486;6.610;2023-04-03T10:38:04;9.50;99.90
3005;DHT22;1512;51.486;6.610;2023-04-03T10:42:22;9.50;99.90
3005;DHT22;1512;51.486;6.610;2023-04-03T10:46:35;9.60;99.90
3005;DHT22;1512;51.486;6.610;2023-04-03T10:51:12;9.70;99.90
3005;DHT22;1512;51.486;6.610;2023-04-03T10:59:55;9.90;99.90
3005;DHT22;1512;51.486;6.610;2023-04-03T11:04:24;9.90;99.90
3005;DHT22;1512;51.486;6.610;2023-04-03T11:08:49;10.00;99.90
3005;DHT22;1512;51.486;6.610;2023-04-03T11:13:01;9.80;99.90
3005;DHT22;1512;51.486;6.610;2023-04-03T11:26:11;10.30;99.90
3005;DHT22;1512;51.486;6.610;2023-04-03T11:34:43;10.50;99.90
3005;DHT22;1512;51.486;6.610;2023-04-03T11:38:55;10.40;99.90
3005;DHT22;1512;51.486;6.610;2023-04-03T11:43:28;10.50;99.90
3005;DHT22;1512;51.486;6.610;2023-04-03T11:47:54;10.60;99.90
3005;DHT22;1512;51.486;6.610;2023-04-03T11:51:48;10.70;99.90
3005;DHT22;1512;51.486;6.610;2023-04-03T11:56:26;10.80;99.90
3005;DHT22;1512;51.486;6.610;2023-04-03T12:05:28;10.60;99.90
3005;DHT22;1512;51.486;6.610;2023-04-03T12:23:28;11.00;99.90
3005;DHT22;1512;51.486;6.610;2023-04-03T12:27:40;10.90;99.90
3005;DHT22;1512;51.486;6.610;2023-04-03T12:36:11;11.10;99.90
3005;DHT22;1512;51.486;6.610;2023-04-03T12:40:31;11.10;99.90
3005;DHT22;1512;51.486;6.610;2023-04-03T12:44:53;11.10;99.90
3005;DHT22;1512;51.486;6.610;2023-04-03T12:53:39;10.90;99.90
3005;DHT22;1512;51.486;6.610;2023-04-03T12:57:48;10.90;99.90
3005;DHT22;1512;51.486;6.610;2023-04-03T13:02:01;10.80;99.90
3005;DHT22;1512;51.486;6.610;2023-04-03T13:11:04;10.80;99.90
3005;DHT22;1512;51.486;6.610;2023-04-03T13:15:20;10.90;99.90
3005;DHT22;1512;51.486;6.610;2023-04-03T13:19:46;10.90;99.90
3005;DHT22;1512;51.486;6.610;2023-04-03T13:23:59;10.90;99.90
3005;DHT22;1512;51.486;6.610;2023-04-03T13:28:15;10.80;99.90
3005;DHT22;1512;51.486;6.610;2023-04-03T13:32:25;10.80;99.90
3005;DHT22;1512;51.486;6.610;2023-04-03T13:36:44;10.70;99.90
3005;DHT22;1512;51.486;6.610;2023-04-03T13:40:56;10.70;99.90
3005;DHT22;1512;51.486;6.610;2023-04-03T13:45:23;10.60;99.90
3005;DHT22;1512;51.486;6.610;2023-04-03T13:49:38;10.60;99.90
3005;DHT22;1512;51.486;6.610;2023-04-03T13:53:57;10.70;99.90
3005;DHT22;1512;51.486;6.610;2023-04-03T14:02:32;10.60;99.90
3005;DHT22;1512;51.486;6.610;2023-04-03T14:06:41;10.50;99.90
3005;DHT22;1512;51.486;6.610;2023-04-03T14:10:50;10.60;99.90
3005;DHT22;1512;51.486;6.610;2023-04-03T14:15:01;10.70;99.90
3005;DHT22;1512;51.486;6.610;2023-04-03T14:19:22;10.60;99.90
3005;DHT22;1512;51.486;6.610;2023-04-03T14:23:30;10.50;99.90
3005;DHT22;1512;51.486;6.610;2023-04-03T14:27:43;10.50;99.90
3005;DHT22;1512;51.486;6.610;2023-04-03T14:31:52;10.40;99.90
3005;DHT22;1512;51.486;6.610;2023-04-03T14:36:14;10.40;99.90
3005;DHT22;1512;51.486;6.610;2023-04-03T14:40:21;10.50;99.90
3005;DHT22;1512;51.486;6.610;2023-04-03T14:44:29;10.60;99.90
3005;DHT22;1512;51.486;6.610;2023-04-03T14:48:38;10.70;99.90
3005;DHT22;1512;51.486;6.610;2023-04-03T14:52:48;10.60;99.90
3005;DHT22;1512;51.486;6.610;2023-04-03T14:56:59;10.50;99.90
3005;DHT22;1512;51.486;6.610;2023-04-03T15:01:11;10.40;99.90
3005;DHT22;1512;51.486;6.610;2023-04-03T15:05:21;10.30;99.90
3005;DHT22;1512;51.486;6.610;2023-04-03T15:09:30;10.30;99.90
3005;DHT22;1512;51.486;6.610;2023-04-03T15:13:39;10.30;99.90
3005;DHT22;1512;51.486;6.610;2023-04-03T15:17:53;10.30;99.90
3005;DHT22;1512;51.486;6.610;2023-04-03T15:22:02;10.30;99.90
3005;DHT22;1512;51.486;6.610;2023-04-03T15:26:11;10.30;99.90
3005;DHT22;1512;51.486;6.610;2023-04-03T15:30:20;10.20;99.90
3005;DHT22;1512;51.486;6.610;2023-04-03T15:34:30;10.20;99.90
3005;DHT22;1512;51.486;6.610;2023-04-03T15:38:39;10.10;99.90
3005;DHT22;1512;51.486;6.610;2023-04-03T15:42:48;10.00;99.90
3005;DHT22;1512;51.486;6.610;2023-04-03T15:46:58;9.90;99.90
3005;DHT22;1512;51.486;6.610;2023-04-03T15:51:07;9.90;99.90
3005;DHT22;1512;51.486;6.610;2023-04-03T15:55:16;9.80;99.90
3005;DHT22;1512;51.486;6.610;2023-04-03T15:59:25;9.70;99.90
3005;DHT22;1512;51.486;6.610;2023-04-03T16:03:33;9.60;99.90
3005;DHT22;1512;51.486;6.610;2023-04-03T16:07:42;9.50;99.90
3005;DHT22;1512;51.486;6.610;2023-04-03T16:11:51;9.40;99.90
3005;DHT22;1512;51.486;6.610;2023-04-03T16:16:00;9.30;99.90
3005;DHT22;1512;51.486;6.610;2023-04-03T16:20:10;9.30;99.90
3005;DHT22;1512;51.486;6.610;2023-04-03T16:24:20;9.30;99.90
3005;DHT22;1512;51.486;6.610;2023-04-03T16:28:28;9.20;99.90
3005;DHT22;1512;51.486;6.610;2023-04-03T16:32:38;9.10;99.90
3005;DHT22;1512;51.486;6.610;2023-04-03T16:36:50;9.10;99.90
3005;DHT22;1512;51.486;6.610;2023-04-03T16:40:59;9.10;99.90
3005;DHT22;1512;51.486;6.610;2023-04-03T16:45:11;9.00;99.90
3005;DHT22;1512;51.486;6.610;2023-04-03T16:49:20;8.90;99.90
3005;DHT22;1512;51.486;6.610;2023-04-03T16:53:29;8.80;99.90
3005;DHT22;1512;51.486;6.610;2023-04-03T16:57:38;8.80;99.90
3005;DHT22;1512;51.486;6.610;2023-04-03T17:01:47;8.80;99.90
3005;DHT22;1512;51.486;6.610;2023-04-03T17:05:55;8.60;99.90
3005;DHT22;1512;51.486;6.610;2023-04-03T17:10:05;8.60;99.90
3005;DHT22;1512;51.486;6.610;2023-04-03T17:14:14;8.50;99.90
3005;DHT22;1512;51.486;6.610;2023-04-03T17:18:22;8.40;99.90
3005;DHT22;1512;51.486;6.610;2023-04-03T17:22:31;8.30;99.90
3005;DHT22;1512;51.486;6.610;2023-04-03T17:26:40;8.20;99.90
3005;DHT22;1512;51.486;6.610;2023-04-03T17:30:49;8.10;99.90
3005;DHT22;1512;51.486;6.610;2023-04-03T17:34:58;8.00;99.90
3005;DHT22;1512;51.486;6.610;2023-04-03T17:39:08;8.00;99.90
3005;DHT22;1512;51.486;6.610;2023-04-03T17:43:16;7.90;99.90
3005;DHT22;1512;51.486;6.610;2023-04-03T17:47:25;7.80;99.90
3005;DHT22;1512;51.486;6.610;2023-04-03T17:51:34;7.80;99.90
3005;DHT22;1512;51.486;6.610;2023-04-03T17:55:43;7.70;99.90
3005;DHT22;1512;51.486;6.610;2023-04-03T17:59:51;7.60;99.90
3005;DHT22;1512;51.486;6.610;2023-04-03T18:04:02;7.50;99.90
3005;DHT22;1512;51.486;6.610;2023-04-03T18:08:11;7.40;99.90
3005;DHT22;1512;51.486;6.610;2023-04-03T18:12:20;7.40;99.90
3005;DHT22;1512;51.486;6.610;2023-04-03T18:16:29;7.30;99.90
3005;DHT22;1512;51.486;6.610;2023-04-03T18:20:38;7.20;99.90
3005;DHT22;1512;51.486;6.610;2023-04-03T18:24:48;7.20;99.90
3005;DHT22;1512;51.486;6.610;2023-04-03T18:29:00;7.20;99.90
3005;DHT22;1512;51.486;6.610;2023-04-03T18:33:08;7.10;99.90
3005;DHT22;1512;51.486;6.610;2023-04-03T18:37:17;7.00;99.90
3005;DHT22;1512;51.486;6.610;2023-04-03T18:41:30;7.00;99.90
3005;DHT22;1512;51.486;6.610;2023-04-03T18:45:39;6.90;99.90
3005;DHT22;1512;51.486;6.610;2023-04-03T18:49:49;6.80;99.90
3005;DHT22;1512;51.486;6.610;2023-04-03T18:53:58;6.80;99.90
3005;DHT22;1512;51.486;6.610;2023-04-03T18:58:07;6.80;99.90
3005;DHT22;1512;51.486;6.610;2023-04-03T19:02:16;6.80;99.90
3005;DHT22;1512;51.486;6.610;2023-04-03T19:06:27;6.70;99.90
3005;DHT22;1512;51.486;6.610;2023-04-03T19:10:36;6.70;99.90
3005;DHT22;1512;51.486;6.610;2023-04-03T19:14:44;6.60;99.90
3005;DHT22;1512;51.486;6.610;2023-04-03T19:18:53;6.60;99.90
3005;DHT22;1512;51.486;6.610;2023-04-03T19:23:05;6.60;99.90
3005;DHT22;1512;51.486;6.610;2023-04-03T19:27:15;6.50;99.90
3005;DHT22;1512;51.486;6.610;2023-04-03T19:31:24;6.40;99.90
3005;DHT22;1512;51.486;6.610;2023-04-03T19:35:32;6.40;99.90
3005;DHT22;1512;51.486;6.610;2023-04-03T19:40:00;6.30;99.90
3005;DHT22;1512;51.486;6.610;2023-04-03T19:44:10;6.20;99.90
3005;DHT22;1512;51.486;6.610;2023-04-03T19:48:19;6.20;99.90
3005;DHT22;1512;51.486;6.610;2023-04-03T19:52:27;6.20;99.90
3005;DHT22;1512;51.486;6.610;2023-04-03T19:56:36;6.20;99.90
3005;DHT22;1512;51.486;6.610;2023-04-03T20:00:45;6.10;99.90
3005;DHT22;1512;51.486;6.610;2023-04-03T20:04:53;6.10;99.90
3005;DHT22;1512;51.486;6.610;2023-04-03T20:09:02;6.10;99.90
3005;DHT22;1512;51.486;6.610;2023-04-03T20:13:11;6.00;99.90
3005;DHT22;1512;51.486;6.610;2023-04-03T20:17:20;5.90;99.90
3005;DHT22;1512;51.486;6.610;2023-04-03T20:21:31;5.90;99.90
3005;DHT22;1512;51.486;6.610;2023-04-03T20:26:00;5.90;99.90
3005;DHT22;1512;51.486;6.610;2023-04-03T20:30:12;5.80;99.90
3005;DHT22;1512;51.486;6.610;2023-04-03T20:34:21;5.80;99.90
3005;DHT22;1512;51.486;6.610;2023-04-03T20:38:29;5.80;99.90
3005;DHT22;1512;51.486;6.610;2023-04-03T20:42:38;5.70;99.90
3005;DHT22;1512;51.486;6.610;2023-04-03T20:46:47;5.60;99.90
3005;DHT22;1512;51.486;6.610;2023-04-03T20:50:58;5.60;99.90
3005;DHT22;1512;51.486;6.610;2023-04-03T20:55:08;5.60;99.90
3005;DHT22;1512;51.486;6.610;2023-04-03T20:59:17;5.60;99.90
3005;DHT22;1512;51.486;6.610;2023-04-03T21:03:28;5.50;99.90
3005;DHT22;1512;51.486;6.610;2023-04-03T21:21:24;5.30;99.90
3005;DHT22;1512;51.486;6.610;2023-04-03T21:25:32;5.30;99.90
3005;DHT22;1512;51.486;6.610;2023-04-03T21:29:41;5.30;99.90
3005;DHT22;1512;51.486;6.610;2023-04-03T21:33:50;5.30;99.90
3005;DHT22;1512;51.486;6.610;2023-04-03T21:37:59;5.30;99.90
3005;DHT22;1512;51.486;6.610;2023-04-03T21:42:08;5.30;99.90
3005;DHT22;1512;51.486;6.610;2023-04-03T21:46:16;5.20;99.90
3005;DHT22;1512;51.486;6.610;2023-04-03T21:50:27;5.20;99.90
3005;DHT22;1512;51.486;6.610;2023-04-03T21:54:35;5.20;99.90
3005;DHT22;1512;51.486;6.610;2023-04-03T21:58:44;5.20;99.90
3005;DHT22;1512;51.486;6.610;2023-04-03T22:02:53;5.10;99.90
3005;DHT22;1512;51.486;6.610;2023-04-03T22:07:03;5.00;99.90
3005;DHT22;1512;51.486;6.610;2023-04-03T22:11:13;5.00;99.90
3005;DHT22;1512;51.486;6.610;2023-04-03T22:15:23;5.00;99.90
3005;DHT22;1512;51.486;6.610;2023-04-03T22:19:31;5.00;99.90
3005;DHT22;1512;51.486;6.610;2023-04-03T22:23:40;4.90;99.90
3005;DHT22;1512;51.486;6.610;2023-04-03T22:27:49;4.90;99.90
3005;DHT22;1512;51.486;6.610;2023-04-03T22:31:58;4.70;99.90
3005;DHT22;1512;51.486;6.610;2023-04-03T22:36:08;4.60;99.90
3005;DHT22;1512;51.486;6.610;2023-04-03T22:40:17;4.50;99.90
3005;DHT22;1512;51.486;6.610;2023-04-03T22:44:26;4.40;99.90
3005;DHT22;1512;51.486;6.610;2023-04-03T22:48:39;4.30;99.90
3005;DHT22;1512;51.486;6.610;2023-04-03T22:52:47;4.30;99.90
3005;DHT22;1512;51.486;6.610;2023-04-03T22:56:56;4.40;99.90
3005;DHT22;1512;51.486;6.610;2023-04-03T23:01:06;4.40;99.90
3005;DHT22;1512;51.486;6.610;2023-04-03T23:05:15;4.40;99.90
3005;DHT22;1512;51.486;6.610;2023-04-03T23:09:24;4.40;99.90
3005;DHT22;1512;51.486;6.610;2023-04-03T23:13:32;4.40;99.90
3005;DHT22;1512;51.486;6.610;2023-04-03T23:17:41;4.40;99.90
3005;DHT22;1512;51.486;6.610;2023-04-03T23:21:50;4.40;99.90
3005;DHT22;1512;51.486;6.610;2023-04-03T23:26:00;4.40;99.90
3005;DHT22;1512;51.486;6.610;2023-04-03T23:30:10;4.40;99.90
3005;DHT22;1512;51.486;6.610;2023-04-03T23:34:18;4.40;99.90
3005;DHT22;1512;51.486;6.610;2023-04-03T23:38:27;4.30;99.90
3005;DHT22;1512;51.486;6.610;2023-04-03T23:42:36;4.30;99.90
3005;DHT22;1512;51.486;6.610;2023-04-03T23:46:44;4.20;99.90
3005;DHT22;1512;51.486;6.610;2023-04-03T23:50:53;4.20;99.90
3005;DHT22;1512;51.486;6.610;2023-04-03T23:55:04;4.20;99.90
3005;DHT22;1512;51.486;6.610;2023-04-03T23:59:12;4.20;99.90
